createdAt,value
2017-12-30T00:01:44.695Z,7.10
2017-12-30T00:04:13.012Z,7.50
2017-12-30T00:06:42.094Z,9.30
2017-12-30T00:09:10.438Z,8.47
2017-12-30T00:11:38.780Z,6.93
2017-12-30T00:14:07.181Z,6.83
2017-12-30T00:16:35.494Z,7.07
2017-12-30T00:19:03.824Z,7.27
2017-12-30T00:21:32.438Z,6.63
2017-12-30T00:24:00.800Z,9.10
2017-12-30T00:26:29.112Z,6.70
2017-12-30T00:28:57.502Z,10.13
2017-12-30T00:31:25.812Z,7.70
2017-12-30T00:33:54.179Z,12.03
2017-12-30T00:36:22.520Z,6.23
2017-12-30T00:38:50.855Z,8.13
2017-12-30T00:41:19.166Z,8.13
2017-12-30T00:43:47.518Z,6.53
2017-12-30T00:46:15.848Z,9.97
2017-12-30T00:48:44.963Z,9.27
2017-12-30T00:51:13.323Z,8.57
2017-12-30T00:53:42.434Z,15.50
2017-12-30T00:56:10.803Z,8.87
2017-12-30T00:58:39.151Z,9.03
2017-12-30T01:01:07.487Z,6.43
2017-12-30T01:03:35.839Z,10.10
2017-12-30T01:06:04.936Z,7.70
2017-12-30T01:08:33.294Z,8.87
2017-12-30T01:11:02.409Z,10.03
2017-12-30T01:13:30.776Z,11.00
2017-12-30T01:15:59.906Z,6.13
2017-12-30T01:18:28.260Z,8.40
2017-12-30T01:20:56.612Z,9.53
2017-12-30T01:23:24.934Z,6.70
2017-12-30T01:25:53.283Z,6.70
2017-12-30T01:28:22.426Z,6.17
2017-12-30T01:30:50.754Z,7.90
2017-12-30T01:33:19.841Z,8.83
2017-12-30T01:35:48.198Z,6.50
2017-12-30T01:38:16.815Z,13.33
2017-12-30T01:40:45.937Z,7.30
2017-12-30T01:43:14.244Z,9.40
2017-12-30T01:45:42.562Z,8.27
2017-12-30T01:48:11.689Z,8.47
2017-12-30T01:50:40.006Z,8.13
2017-12-30T01:53:08.343Z,6.93
2017-12-30T01:55:36.695Z,8.30
2017-12-30T01:58:05.808Z,7.03
2017-12-30T02:00:34.139Z,6.73
2017-12-30T02:03:02.535Z,7.47
2017-12-30T02:05:31.723Z,8.50
2017-12-30T02:08:00.109Z,6.73
2017-12-30T02:10:28.478Z,6.60
2017-12-30T02:12:56.805Z,8.73
2017-12-30T02:15:25.183Z,8.90
2017-12-30T02:17:53.511Z,7.90
2017-12-30T02:20:22.614Z,6.47
2017-12-30T02:22:51.780Z,6.27
2017-12-30T02:25:20.112Z,7.00
2017-12-30T02:27:48.465Z,6.50
2017-12-30T02:30:17.591Z,7.07
2017-12-30T02:32:45.902Z,7.00
2017-12-30T02:35:14.326Z,6.73
2017-12-30T02:37:43.468Z,7.60
2017-12-30T02:40:11.799Z,7.83
2017-12-30T02:42:40.884Z,6.27
2017-12-30T02:45:09.984Z,7.87
2017-12-30T02:47:39.075Z,5.80
2017-12-30T02:50:08.206Z,7.43
2017-12-30T02:52:36.579Z,7.50
2017-12-30T02:55:05.040Z,6.13
2017-12-30T02:57:34.156Z,7.40
2017-12-30T03:00:02.474Z,8.53
2017-12-30T03:02:30.827Z,6.00
2017-12-30T03:04:59.285Z,6.60
2017-12-30T03:07:27.594Z,6.00
2017-12-30T03:09:55.940Z,7.87
2017-12-30T03:14:59.723Z,5.30
2017-12-30T03:17:28.131Z,6.47
2017-12-30T03:19:56.442Z,5.63
2017-12-30T03:22:24.812Z,5.60
2017-12-30T03:24:53.147Z,6.13
2017-12-30T03:27:22.261Z,6.00
2017-12-30T03:29:50.595Z,5.77
2017-12-30T03:32:18.902Z,7.13
2017-12-30T03:34:48.089Z,4.90
2017-12-30T03:37:17.170Z,5.00
2017-12-30T03:39:45.563Z,6.17
2017-12-30T03:42:14.687Z,5.67
2017-12-30T03:44:43.009Z,6.20
2017-12-30T03:47:11.337Z,5.73
2017-12-30T03:49:39.674Z,7.90
2017-12-30T03:52:08.043Z,7.13
2017-12-30T03:54:36.376Z,7.10
2017-12-30T03:57:04.709Z,6.13
2017-12-30T03:59:33.062Z,7.57
2017-12-30T04:02:01.429Z,7.40
2017-12-30T04:04:29.741Z,6.30
2017-12-30T04:06:58.178Z,7.17
2017-12-30T04:09:26.539Z,7.37
2017-12-30T04:11:54.847Z,7.83
2017-12-30T04:14:23.178Z,7.30
2017-12-30T04:16:52.288Z,6.60
2017-12-30T04:19:20.630Z,7.47
2017-12-30T04:21:48.987Z,9.43
2017-12-30T04:24:17.299Z,10.20
2017-12-30T04:26:45.669Z,11.10
2017-12-30T04:29:14.767Z,9.67
2017-12-30T04:31:43.868Z,9.70
2017-12-30T04:34:12.992Z,10.53
2017-12-30T04:36:41.368Z,11.07
2017-12-30T04:39:09.701Z,8.77
2017-12-30T04:41:38.024Z,10.63
2017-12-30T04:44:06.339Z,9.13
2017-12-30T04:46:34.700Z,9.90
2017-12-30T04:49:03.041Z,8.97
2017-12-30T04:51:31.382Z,8.80
2017-12-30T04:53:59.711Z,8.40
2017-12-30T04:56:28.064Z,9.53
2017-12-30T04:58:57.159Z,10.33
2017-12-30T05:01:26.331Z,10.43
2017-12-30T05:03:54.682Z,10.23
2017-12-30T05:06:23.009Z,19.13
2017-12-30T05:08:52.179Z,12.27
2017-12-30T05:11:20.562Z,10.43
2017-12-30T05:13:48.880Z,9.07
2017-12-30T05:16:17.222Z,10.00
2017-12-30T05:18:46.343Z,10.87
2017-12-30T05:21:14.667Z,9.67
2017-12-30T05:23:43.039Z,16.50
2017-12-30T05:26:11.376Z,12.70
2017-12-30T05:28:39.707Z,10.93
2017-12-30T05:31:08.027Z,11.60
2017-12-30T05:33:36.388Z,10.80
2017-12-30T05:36:05.472Z,10.60
2017-12-30T05:38:33.823Z,13.10
2017-12-30T05:41:02.159Z,13.97
2017-12-30T05:43:30.511Z,14.20
2017-12-30T05:45:58.895Z,12.20
2017-12-30T05:48:28.028Z,13.50
2017-12-30T05:50:56.372Z,17.47
2017-12-30T05:53:25.516Z,12.03
2017-12-30T05:55:53.835Z,12.70
2017-12-30T05:58:22.167Z,19.07
2017-12-30T06:00:50.535Z,13.43
2017-12-30T06:03:18.857Z,14.17
2017-12-30T06:05:47.184Z,11.57
2017-12-30T06:08:15.548Z,14.70
2017-12-30T06:10:43.891Z,15.03
2017-12-30T06:13:12.411Z,17.93
2017-12-30T06:15:40.757Z,12.33
2017-12-30T06:18:09.932Z,12.73
2017-12-30T06:20:38.265Z,11.40
2017-12-30T06:23:06.597Z,12.33
2017-12-30T06:25:34.952Z,14.43
2017-12-30T06:28:03.269Z,12.83
2017-12-30T06:30:32.395Z,12.93
2017-12-30T06:33:00.752Z,13.67
2017-12-30T06:35:29.849Z,16.30
2017-12-30T06:37:58.945Z,13.37
2017-12-30T06:40:28.077Z,11.30
2017-12-30T06:42:56.440Z,12.93
2017-12-30T06:45:24.802Z,15.87
2017-12-30T06:47:53.163Z,13.47
2017-12-30T06:50:22.288Z,13.10
2017-12-30T06:52:50.618Z,19.23
2017-12-30T06:55:20.454Z,14.57
2017-12-30T06:57:49.569Z,13.87
2017-12-30T07:00:17.892Z,16.57
2017-12-30T07:02:46.286Z,14.97
2017-12-30T07:05:14.613Z,14.93
2017-12-30T07:07:42.971Z,12.90
2017-12-30T07:10:11.292Z,17.37
2017-12-30T07:12:39.613Z,17.47
2017-12-30T07:15:08.812Z,14.13
2017-12-30T07:17:37.917Z,15.23
2017-12-30T07:20:06.508Z,15.00
2017-12-30T07:22:34.850Z,12.27
2017-12-30T07:25:03.239Z,13.33
2017-12-30T07:27:32.352Z,11.30
2017-12-30T07:30:00.677Z,15.73
2017-12-30T07:32:29.028Z,16.90
2017-12-30T07:34:57.334Z,12.77
2017-12-30T07:37:25.675Z,13.90
2017-12-30T07:39:54.040Z,14.97
2017-12-30T07:42:22.361Z,13.20
2017-12-30T07:44:50.698Z,14.67
2017-12-30T07:47:19.052Z,10.03
2017-12-30T07:49:48.167Z,17.00
2017-12-30T07:52:16.504Z,16.47
2017-12-30T07:54:44.862Z,13.87
2017-12-30T07:57:13.187Z,12.57
2017-12-30T07:59:42.267Z,7.80
2017-12-30T08:02:10.636Z,14.87
2017-12-30T08:04:38.956Z,9.10
2017-12-30T08:07:07.268Z,11.50
2017-12-30T08:09:35.627Z,11.63
2017-12-30T08:12:03.972Z,21.20
2017-12-30T08:14:33.092Z,15.40
2017-12-30T08:17:01.444Z,10.17
2017-12-30T08:19:30.532Z,15.27
2017-12-30T08:21:59.636Z,15.57
2017-12-30T08:24:28.756Z,16.97
2017-12-30T08:26:57.089Z,10.50
2017-12-30T08:29:26.192Z,12.13
2017-12-30T08:31:54.549Z,11.57
2017-12-30T08:34:22.967Z,17.13
2017-12-30T08:36:51.318Z,10.87
2017-12-30T08:39:19.689Z,16.07
2017-12-30T08:41:48.009Z,8.10
2017-12-30T08:44:16.373Z,16.97
2017-12-30T08:46:45.452Z,15.57
2017-12-30T08:49:13.755Z,7.80
2017-12-30T08:51:42.120Z,18.20
2017-12-30T08:54:11.281Z,12.93
2017-12-30T08:56:39.647Z,15.17
2017-12-30T08:59:08.008Z,12.40
2017-12-30T09:01:36.323Z,13.30
2017-12-30T09:04:04.665Z,13.80
2017-12-30T09:06:32.988Z,14.20
2017-12-30T09:09:02.124Z,11.20
2017-12-30T09:11:30.500Z,7.33
2017-12-30T09:13:58.822Z,15.23
2017-12-30T09:16:27.167Z,16.27
2017-12-30T09:18:55.736Z,20.87
2017-12-30T09:21:24.113Z,12.07
2017-12-30T09:23:52.466Z,12.03
2017-12-30T09:26:21.568Z,11.90
2017-12-30T09:28:50.717Z,12.03
2017-12-30T09:31:19.079Z,15.77
2017-12-30T09:33:47.410Z,21.60
2017-12-30T09:36:16.553Z,10.20
2017-12-30T09:38:44.911Z,20.27
2017-12-30T09:41:13.325Z,13.10
2017-12-30T09:43:41.663Z,11.23
2017-12-30T09:46:10.129Z,10.70
2017-12-30T09:48:38.481Z,11.50
2017-12-30T09:51:06.791Z,11.93
2017-12-30T09:53:35.161Z,8.10
2017-12-30T09:56:04.301Z,5.83
2017-12-30T09:58:32.646Z,12.90
2017-12-30T10:01:00.974Z,10.07
2017-12-30T10:03:29.348Z,9.40
2017-12-30T10:05:57.670Z,10.90
2017-12-30T10:08:26.178Z,8.13
2017-12-30T10:10:54.549Z,7.70
2017-12-30T10:13:22.901Z,11.70
2017-12-30T10:15:52.034Z,8.87
2017-12-30T10:18:20.407Z,12.53
2017-12-30T10:20:48.752Z,7.93
2017-12-30T10:23:17.840Z,10.60
2017-12-30T10:25:46.932Z,9.10
2017-12-30T10:28:16.091Z,15.97
2017-12-30T10:30:44.412Z,8.60
2017-12-30T10:33:13.549Z,10.77
2017-12-30T10:35:41.900Z,13.00
2017-12-30T10:38:10.373Z,10.33
2017-12-30T10:40:39.497Z,8.27
2017-12-30T10:43:07.827Z,10.53
2017-12-30T10:45:36.163Z,8.77
2017-12-30T10:48:04.483Z,9.43
2017-12-30T10:50:34.359Z,8.83
2017-12-30T10:53:02.703Z,15.10
2017-12-30T10:55:31.042Z,11.23
2017-12-30T10:57:59.409Z,9.33
2017-12-30T11:00:33.277Z,11.73
2017-12-30T11:03:01.653Z,10.80
2017-12-30T11:05:29.967Z,7.73
2017-12-30T11:07:58.316Z,16.30
2017-12-30T11:10:26.667Z,11.73
2017-12-30T11:12:55.024Z,7.60
2017-12-30T11:15:24.141Z,9.60
2017-12-30T11:17:52.476Z,18.67
2017-12-30T11:20:20.844Z,24.17
2017-12-30T11:22:49.301Z,17.10
2017-12-30T11:25:17.681Z,15.40
2017-12-30T11:27:46.068Z,11.43
2017-12-30T11:30:14.435Z,23.07
2017-12-30T11:32:42.753Z,15.60
2017-12-30T11:35:11.090Z,16.77
2017-12-30T11:37:39.440Z,18.93
2017-12-30T11:40:07.813Z,11.13
2017-12-30T11:42:36.928Z,19.33
2017-12-30T11:45:05.260Z,28.30
2017-12-30T11:47:33.596Z,13.03
2017-12-30T11:50:01.968Z,16.60
2017-12-30T11:52:30.304Z,19.80
2017-12-30T11:54:58.619Z,11.53
2017-12-30T11:57:26.981Z,13.00
2017-12-30T11:59:55.369Z,15.63
2017-12-30T12:02:23.735Z,23.37
2017-12-30T12:04:52.823Z,12.23
2017-12-30T12:07:21.926Z,17.57
2017-12-30T12:09:51.024Z,12.53
2017-12-30T12:12:19.351Z,15.63
2017-12-30T12:14:47.705Z,18.67
2017-12-30T12:17:16.025Z,13.63
2017-12-30T12:19:44.393Z,19.17
2017-12-30T12:22:12.787Z,18.30
2017-12-30T12:24:41.130Z,21.83
2017-12-30T12:27:09.503Z,19.30
2017-12-30T12:29:37.866Z,16.93
2017-12-30T12:32:06.196Z,15.97
2017-12-30T12:34:35.309Z,20.67
2017-12-30T12:37:04.415Z,13.93
2017-12-30T12:39:32.782Z,13.60
2017-12-30T12:42:01.871Z,21.73
2017-12-30T12:44:30.951Z,19.60
2017-12-30T12:46:59.307Z,12.30
2017-12-30T12:49:27.678Z,10.00
2017-12-30T12:51:56.104Z,12.57
2017-12-30T12:54:24.459Z,25.20
2017-12-30T12:56:52.814Z,10.73
2017-12-30T12:59:21.173Z,14.57
2017-12-30T13:01:49.517Z,14.70
2017-12-30T13:04:18.628Z,15.70
2017-12-30T13:06:46.975Z,18.03
2017-12-30T13:09:15.297Z,13.03
2017-12-30T13:11:43.686Z,7.87
2017-12-30T13:14:12.028Z,12.93
2017-12-30T13:16:41.153Z,14.13
2017-12-30T13:19:09.510Z,12.50
2017-12-30T13:21:37.837Z,7.73
2017-12-30T13:24:06.212Z,14.40
2017-12-30T13:26:34.567Z,12.70
2017-12-30T13:29:02.920Z,10.90
2017-12-30T13:31:31.313Z,10.00
2017-12-30T13:33:59.663Z,7.23
2017-12-30T13:36:28.761Z,7.20
2017-12-30T13:38:57.887Z,11.70
2017-12-30T13:41:26.216Z,12.37
2017-12-30T13:43:54.536Z,8.50
2017-12-30T13:46:22.884Z,14.77
2017-12-30T13:48:52.015Z,4.53
2017-12-30T13:51:20.360Z,12.93
2017-12-30T13:53:49.463Z,9.40
2017-12-30T13:56:17.803Z,6.80
2017-12-30T13:58:46.701Z,7.70
2017-12-30T14:01:15.015Z,7.67
2017-12-30T14:03:43.373Z,4.70
2017-12-30T14:06:12.452Z,6.50
2017-12-30T14:08:40.780Z,5.50
2017-12-30T14:11:09.149Z,4.03
2017-12-30T14:13:37.479Z,3.40
2017-12-30T14:16:05.791Z,2.43
2017-12-30T14:18:34.132Z,4.43
2017-12-30T14:21:02.483Z,7.13
2017-12-30T14:23:30.826Z,2.97
2017-12-30T14:25:59.158Z,4.50
2017-12-30T14:28:27.516Z,7.73
2017-12-30T14:30:55.878Z,2.60
2017-12-30T14:33:24.195Z,4.80
2017-12-30T14:35:52.545Z,2.97
2017-12-30T14:38:20.872Z,13.00
2017-12-30T14:40:49.952Z,3.60
2017-12-30T14:43:19.085Z,2.77
2017-12-30T14:45:47.430Z,1.70
2017-12-30T14:48:16.528Z,3.50
2017-12-30T14:50:45.635Z,1.70
2017-12-30T14:53:14.918Z,1.40
2017-12-30T14:55:44.000Z,2.90
2017-12-30T14:58:12.323Z,3.23
2017-12-30T15:00:40.656Z,4.20
2017-12-30T15:03:08.992Z,3.07
2017-12-30T15:05:37.360Z,3.83
2017-12-30T15:08:05.714Z,7.93
2017-12-30T15:10:34.808Z,3.10
2017-12-30T15:13:03.920Z,1.27
2017-12-30T15:15:32.242Z,2.90
2017-12-30T15:18:00.595Z,1.57
2017-12-30T15:20:28.905Z,5.53
2017-12-30T15:22:57.263Z,1.83
2017-12-30T15:25:25.655Z,1.60
2017-12-30T15:27:53.975Z,1.30
2017-12-30T15:30:22.511Z,1.57
2017-12-30T15:32:50.919Z,2.63
2017-12-30T15:35:19.269Z,0.70
2017-12-30T15:37:47.614Z,0.70
2017-12-30T15:40:15.931Z,1.27
2017-12-30T15:42:44.290Z,0.90
2017-12-30T15:45:12.619Z,1.27
2017-12-30T15:47:41.751Z,2.27
2017-12-30T15:50:10.092Z,3.27
2017-12-30T15:52:38.449Z,1.27
2017-12-30T15:55:06.751Z,4.03
2017-12-30T15:57:35.956Z,4.80
2017-12-30T16:00:04.288Z,2.30
2017-12-30T16:02:32.603Z,1.77
2017-12-30T16:05:00.980Z,3.07
2017-12-30T16:07:29.308Z,2.70
2017-12-30T16:09:57.640Z,2.00
2017-12-30T16:12:25.975Z,2.40
2017-12-30T16:14:54.315Z,1.93
2017-12-30T16:17:22.695Z,6.43
2017-12-30T16:19:51.017Z,6.30
2017-12-30T16:22:19.383Z,3.43
2017-12-30T16:24:47.803Z,2.13
2017-12-30T16:27:16.174Z,8.83
2017-12-30T16:29:44.499Z,5.67
2017-12-30T16:32:12.869Z,4.73
2017-12-30T16:34:41.190Z,2.47
2017-12-30T16:37:09.572Z,5.60
2017-12-30T16:39:38.771Z,4.60
2017-12-30T16:42:07.897Z,5.87
2017-12-30T16:44:36.278Z,7.33
2017-12-30T16:47:04.614Z,5.50
2017-12-30T16:49:32.947Z,12.00
2017-12-30T16:52:01.302Z,10.23
2017-12-30T16:54:29.699Z,7.00
2017-12-30T16:56:58.023Z,10.10
2017-12-30T16:59:26.353Z,10.53
2017-12-30T17:01:54.732Z,17.07
2017-12-30T17:04:23.048Z,16.23
2017-12-30T17:06:51.458Z,14.80
2017-12-30T17:09:20.596Z,8.83
2017-12-30T17:11:48.923Z,14.50
2017-12-30T17:14:18.020Z,8.70
2017-12-30T17:16:47.175Z,18.93
2017-12-30T17:19:15.500Z,13.40
2017-12-30T17:21:44.623Z,16.87
2017-12-30T17:24:12.939Z,12.97
2017-12-30T17:26:41.329Z,20.40
2017-12-30T17:29:09.672Z,23.60
2017-12-30T17:31:37.993Z,14.70
2017-12-30T17:34:07.083Z,19.77
2017-12-30T17:36:36.204Z,15.70
2017-12-30T17:39:04.543Z,32.17
2017-12-30T17:41:32.870Z,23.43
2017-12-30T17:44:01.230Z,15.40
2017-12-30T17:46:30.327Z,23.83
2017-12-30T17:48:58.677Z,19.67
2017-12-30T17:51:27.027Z,25.00
2017-12-30T17:53:55.379Z,37.77
2017-12-30T17:56:23.820Z,36.47
2017-12-30T17:58:52.140Z,35.63
2017-12-30T18:01:20.458Z,37.17
2017-12-30T18:03:48.844Z,31.53
2017-12-30T18:06:17.158Z,36.40
2017-12-30T18:08:45.537Z,39.00
2017-12-30T18:11:13.887Z,37.73
2017-12-30T18:13:43.024Z,27.27
2017-12-30T18:16:11.373Z,41.53
2017-12-30T18:18:39.727Z,42.27
2017-12-30T18:21:08.086Z,30.67
2017-12-30T18:23:36.586Z,37.60
2017-12-30T18:26:04.916Z,39.77
2017-12-30T18:28:33.268Z,42.77
2017-12-30T18:31:01.608Z,43.03
2017-12-30T18:33:30.723Z,44.97
2017-12-30T18:35:59.094Z,33.83
2017-12-30T18:38:27.423Z,42.97
2017-12-30T18:40:55.787Z,45.77
2017-12-30T18:43:24.112Z,41.50
2017-12-30T18:45:52.440Z,33.53
2017-12-30T18:48:20.807Z,35.03
2017-12-30T18:50:49.131Z,32.47
2017-12-30T18:53:17.456Z,34.67
2017-12-30T18:55:45.806Z,44.97
2017-12-30T18:58:14.195Z,32.53
2017-12-30T19:00:42.570Z,35.90
2017-12-30T19:03:11.006Z,38.50
2017-12-30T19:05:39.378Z,39.87
2017-12-30T19:08:07.759Z,33.10
2017-12-30T19:10:36.113Z,30.10
2017-12-30T19:13:04.479Z,29.10
2017-12-30T19:15:33.594Z,33.33
2017-12-30T19:18:01.935Z,28.87
2017-12-30T19:20:31.854Z,42.50
2017-12-30T19:23:00.936Z,27.47
2017-12-30T19:25:29.293Z,43.43
2017-12-30T19:27:57.659Z,28.93
2017-12-30T19:30:25.988Z,30.47
2017-12-30T19:32:55.078Z,25.97
2017-12-30T19:35:24.195Z,29.23
2017-12-30T19:37:52.549Z,41.87
2017-12-30T19:40:21.652Z,37.93
2017-12-30T19:42:53.639Z,38.00
2017-12-30T19:45:21.962Z,35.57
2017-12-30T19:47:50.460Z,37.90
2017-12-30T19:50:21.374Z,33.40
2017-12-30T19:52:49.992Z,27.33
2017-12-30T19:55:19.503Z,42.80
2017-12-30T19:57:47.864Z,38.50
2017-12-30T20:00:16.206Z,31.10
2017-12-30T20:02:44.614Z,45.00
2017-12-30T20:05:13.694Z,31.43
2017-12-30T20:07:42.043Z,27.30
2017-12-30T20:10:10.376Z,38.37
2017-12-30T20:12:39.499Z,58.00
2017-12-30T20:15:07.831Z,39.07
2017-12-30T20:17:36.175Z,47.30
2017-12-30T20:20:04.536Z,38.00
2017-12-30T20:22:32.861Z,40.13
2017-12-30T20:25:01.188Z,38.83
2017-12-30T20:27:29.560Z,44.30
2017-12-30T20:29:57.885Z,35.33
2017-12-30T20:32:26.210Z,40.73
2017-12-30T20:34:54.578Z,52.23
2017-12-30T20:37:22.908Z,37.53
2017-12-30T20:39:51.241Z,30.57
2017-12-30T20:42:19.585Z,35.53
2017-12-30T20:44:47.900Z,34.63
2017-12-30T20:47:16.219Z,50.33
2017-12-30T20:49:44.587Z,40.80
2017-12-30T20:52:12.904Z,33.77
2017-12-30T20:54:41.306Z,45.00
2017-12-30T20:57:09.675Z,38.00
2017-12-30T20:59:38.801Z,40.83
2017-12-30T21:02:07.165Z,27.37
2017-12-30T21:04:35.512Z,34.07
2017-12-30T21:07:03.827Z,31.37
2017-12-30T21:09:32.179Z,27.70
2017-12-30T21:12:00.559Z,29.83
2017-12-30T21:14:29.019Z,25.10
2017-12-30T21:16:57.371Z,34.30
2017-12-30T21:19:25.686Z,25.97
2017-12-30T21:21:54.803Z,35.20
2017-12-30T21:24:39.846Z,36.50
2017-12-30T21:27:08.987Z,42.50
2017-12-30T21:29:37.310Z,26.40
2017-12-30T21:32:06.537Z,25.50
2017-12-30T21:34:35.839Z,32.47
2017-12-30T21:37:04.255Z,34.33
2017-12-30T21:39:32.574Z,37.50
2017-12-30T21:42:01.670Z,21.77
2017-12-30T21:44:30.819Z,24.83
2017-12-30T21:46:59.213Z,35.63
2017-12-30T21:49:27.613Z,32.37
2017-12-30T21:51:55.987Z,29.03
2017-12-30T21:54:24.313Z,36.43
2017-12-30T21:56:52.666Z,23.83
2017-12-30T21:59:21.815Z,30.47
2017-12-30T22:01:50.155Z,32.43
2017-12-30T22:04:18.485Z,26.73
2017-12-30T22:06:48.473Z,29.40
2017-12-30T22:09:16.835Z,35.63
2017-12-30T22:11:45.172Z,35.27
2017-12-30T22:14:14.320Z,30.50
2017-12-30T22:16:42.721Z,30.93
2017-12-30T22:19:11.104Z,35.83
2017-12-30T22:21:39.468Z,34.20
2017-12-30T22:24:07.805Z,32.53
2017-12-30T22:26:36.936Z,26.73
2017-12-30T22:29:05.285Z,29.70
2017-12-30T22:31:33.635Z,50.37
2017-12-30T22:34:02.019Z,31.33
2017-12-30T22:36:31.100Z,40.17
2017-12-30T22:39:00.251Z,39.60
2017-12-30T22:41:28.571Z,23.13
2017-12-30T22:43:57.676Z,30.57
2017-12-30T22:46:26.871Z,19.33
2017-12-30T22:48:55.247Z,26.07
2017-12-30T22:51:24.396Z,41.93
2017-12-30T22:53:52.755Z,26.77
2017-12-30T22:56:21.095Z,31.37
2017-12-30T22:58:49.515Z,23.10
2017-12-30T23:01:17.870Z,29.10
2017-12-30T23:03:46.285Z,23.93
2017-12-30T23:06:14.643Z,26.07
2017-12-30T23:08:43.000Z,19.97
2017-12-30T23:13:46.535Z,22.43
2017-12-30T23:16:15.191Z,9.87
2017-12-30T23:18:44.478Z,14.57
2017-12-30T23:21:13.733Z,18.73
2017-12-30T23:23:42.061Z,14.97
2017-12-30T23:26:10.400Z,9.30
2017-12-30T23:28:38.717Z,16.17
2017-12-30T23:31:07.098Z,14.83
2017-12-30T23:33:35.473Z,20.90
2017-12-30T23:36:04.678Z,15.30
2017-12-30T23:38:33.055Z,14.00
2017-12-30T23:41:02.151Z,17.60
2017-12-30T23:43:30.478Z,15.23
2017-12-30T23:45:58.860Z,24.53
2017-12-30T23:48:27.220Z,15.50
2017-12-30T23:50:55.590Z,22.47
2017-12-30T23:53:23.945Z,15.60
2017-12-30T23:55:53.064Z,21.77
2017-12-30T23:58:21.379Z,19.57
